Sarasota, Florida
Current Conditions -  °F | °C
As of 2:53 PM on Thursday 30 Oct 2014 (Local Time) from KSRQ Reporting Station
Few Clouds Few Clouds  
Wind Chill: 28°   Ceiling: Unl
Heat Index: 29°   Visibility: 10mi
Dew Point: 17°   Wind: 10mph
Humidity: 49%   Direction: 240°WSW
Pressure: 29.89"   Gusts: NA
Location:  27.34°N, 82.54°W
Report Text: KSRQ 301853Z 24009KT 10SM FEW055 28/17 A2989 RMK AO2 LTG DSNT W SLP121 T02830167
Loading
Personal Weather Stations






























Interactive Weather Map
Tropical Storm Tracking
New forecast layout! Learn more

10-Day Weather Forecast

Advertisements
Track Severe Weather on mobile